Time;durP1;ratioP1;P1;durP2;ratioP2;P2;SDS_P1;SDS_P2;PMS_P1;PMS_P2;Temp;Humidity;BMP_temperature;BMP_pressure;BME280_temperature;BME280_humidity;BME280_pressure;Samples;Min_cycle;Max_cycle;Signal;HPM_P1;HPM_P2
2023/08/17 00:00:21;;;;;;;8.90;2.10;;;;;;;;;;5033686;28;20514;-73
2023/08/17 00:02:47;;;;;;;5.50;1.60;;;;;;;;;;5032322;28;20108;-72
2023/08/17 00:05:13;;;;;;;8.25;2.20;;;;;;;;;;5034512;28;20063;-74
2023/08/17 00:07:39;;;;;;;9.90;2.38;;;;;;;;;;5034478;28;20026;-73
2023/08/17 00:10:05;;;;;;;11.77;1.60;;;;;;;;;;5034668;28;20443;-72
2023/08/17 00:12:31;;;;;;;7.30;1.75;;;;;;;;;;5034312;28;20112;-73
2023/08/17 00:14:57;;;;;;;9.43;1.83;;;;;;;;;;5034374;28;20080;-73
2023/08/17 00:17:23;;;;;;;12.32;2.20;;;;;;;;;;5034327;28;20415;-74
2023/08/17 00:19:49;;;;;;;10.98;1.73;;;;;;;;;;5034307;28;20021;-73
2023/08/17 00:22:16;;;;;;;7.13;1.55;;;;;;;;;;5034259;28;20045;-72
2023/08/17 00:24:44;;;;;;;7.82;1.77;;;;;;;;;;5034343;28;20029;-72
2023/08/17 00:27:11;;;;;;;11.13;2.35;;;;;;;;;;5034325;28;20021;-73
2023/08/17 00:29:37;;;;;;;9.85;1.73;;;;;;;;;;5034496;28;20026;-73
2023/08/17 00:32:03;;;;;;;11.13;2.03;;;;;;;;;;5034794;28;20027;-74
2023/08/17 00:34:29;;;;;;;9.77;1.75;;;;;;;;;;5034045;28;20033;-71
2023/08/17 00:36:55;;;;;;;13.57;2.15;;;;;;;;;;5033962;28;20099;-72
2023/08/17 00:39:21;;;;;;;11.30;2.10;;;;;;;;;;5034081;28;20475;-72
2023/08/17 00:41:47;;;;;;;11.23;2.10;;;;;;;;;;5033691;28;20025;-72
2023/08/17 00:44:13;;;;;;;13.93;2.15;;;;;;;;;;5033924;28;20029;-72
2023/08/17 00:46:40;;;;;;;13.98;2.33;;;;;;;;;;5033845;28;20025;-72
2023/08/17 00:49:06;;;;;;;6.93;1.65;;;;;;;;;;5033832;28;20025;-70
2023/08/17 00:51:33;;;;;;;9.05;1.95;;;;;;;;;;5033802;28;20036;-71
2023/08/17 00:53:59;;;;;;;12.90;2.00;;;;;;;;;;5033485;28;20029;-71
2023/08/17 00:56:26;;;;;;;5.93;1.70;;;;;;;;;;5033694;28;20037;-71
2023/08/17 00:58:53;;;;;;;8.20;1.90;;;;;;;;;;5033664;28;20037;-72
2023/08/17 01:01:19;;;;;;;12.13;1.80;;;;;;;;;;5033438;28;20106;-73
2023/08/17 01:03:45;;;;;;;10.77;2.08;;;;;;;;;;5033237;28;20032;-73
2023/08/17 01:06:12;;;;;;;11.65;2.03;;;;;;;;;;5033680;28;20061;-73
2023/08/17 01:08:38;;;;;;;6.55;1.90;;;;;;;;;;5033505;28;20026;-73
2023/08/17 01:11:16;;;;;;;11.35;2.22;;;;;;;;;;5033382;28;20025;-72
2023/08/17 01:13:48;;;;;;;9.73;1.80;;;;;;;;;;5032924;28;20044;-74
2023/08/17 01:16:16;;;;;;;8.88;2.10;;;;;;;;;;5033341;28;20076;-73
2023/08/17 01:18:43;;;;;;;10.82;2.40;;;;;;;;;;5034666;28;20025;-74
2023/08/17 01:21:10;;;;;;;7.80;2.13;;;;;;;;;;5034889;28;20026;-74
2023/08/17 01:23:36;;;;;;;7.80;1.77;;;;;;;;;;5034624;28;20024;-73
2023/08/17 01:26:03;;;;;;;9.85;2.00;;;;;;;;;;5034576;28;20033;-74
2023/08/17 01:28:29;;;;;;;12.00;2.28;;;;;;;;;;5033589;28;20434;-73
2023/08/17 01:30:57;;;;;;;8.55;2.25;;;;;;;;;;5033822;28;20434;-72
2023/08/17 01:33:28;;;;;;;9.48;2.03;;;;;;;;;;5032849;28;20033;-73
2023/08/17 01:36:14;;;;;;;9.52;1.95;;;;;;;;;;5033210;28;20595;-72
2023/08/17 01:38:41;;;;;;;9.25;2.47;;;;;;;;;;5031495;28;20629;-73
2023/08/17 01:41:12;;;;;;;5.88;1.92;;;;;;;;;;5032918;28;20063;-72
2023/08/17 01:43:39;;;;;;;9.77;2.13;;;;;;;;;;5032686;28;20052;-71
2023/08/17 01:46:05;;;;;;;11.18;2.08;;;;;;;;;;5031889;28;20040;-72
2023/08/17 01:48:31;;;;;;;8.25;1.80;;;;;;;;;;5033687;28;20468;-72
2023/08/17 01:50:57;;;;;;;6.75;1.88;;;;;;;;;;5034497;28;20072;-73
2023/08/17 01:53:23;;;;;;;7.80;2.00;;;;;;;;;;5032337;28;20446;-73
2023/08/17 01:55:49;;;;;;;11.13;2.33;;;;;;;;;;5032587;28;20022;-72
2023/08/17 01:58:15;;;;;;;12.25;1.95;;;;;;;;;;5032455;28;20021;-73
2023/08/17 02:00:41;;;;;;;7.88;2.13;;;;;;;;;;5032968;28;20411;-73
2023/08/17 02:03:07;;;;;;;8.80;1.60;;;;;;;;;;5032062;28;20454;-73
2023/08/17 02:05:33;;;;;;;5.28;1.83;;;;;;;;;;5032346;28;20060;-73
2023/08/17 02:07:59;;;;;;;6.10;1.67;;;;;;;;;;5032428;28;20021;-73
2023/08/17 02:10:25;;;;;;;7.13;1.80;;;;;;;;;;5032703;28;20090;-73
2023/08/17 02:12:51;;;;;;;10.57;2.25;;;;;;;;;;5032046;28;20025;-73
2023/08/17 02:15:17;;;;;;;6.95;1.92;;;;;;;;;;5032116;28;20036;-73
2023/08/17 02:17:43;;;;;;;9.90;2.28;;;;;;;;;;5031935;28;20029;-71
2023/08/17 02:20:09;;;;;;;3.38;1.55;;;;;;;;;;5032117;28;20510;-72
2023/08/17 02:22:35;;;;;;;4.70;1.60;;;;;;;;;;5031709;28;20068;-73
2023/08/17 02:25:01;;;;;;;9.50;2.03;;;;;;;;;;5031937;28;20434;-72
2023/08/17 02:27:30;;;;;;;8.23;1.95;;;;;;;;;;5031991;28;20021;-71
2023/08/17 02:29:56;;;;;;;15.50;2.00;;;;;;;;;;5032082;28;20060;-72
2023/08/17 02:32:22;;;;;;;5.78;1.85;;;;;;;;;;5031755;28;20079;-72
2023/08/17 02:34:48;;;;;;;14.82;2.72;;;;;;;;;;5031860;28;20029;-72
2023/08/17 02:37:14;;;;;;;6.03;1.80;;;;;;;;;;5031951;28;20475;-72
2023/08/17 02:39:41;;;;;;;13.43;1.73;;;;;;;;;;5031817;28;20112;-72
2023/08/17 02:42:07;;;;;;;8.00;1.73;;;;;;;;;;5030841;28;20026;-73
2023/08/17 02:44:33;;;;;;;7.90;1.60;;;;;;;;;;5031565;28;20021;-72
2023/08/17 02:46:59;;;;;;;7.13;1.60;;;;;;;;;;5031788;28;20036;-73
2023/08/17 02:49:25;;;;;;;10.32;2.03;;;;;;;;;;5031828;28;20029;-73
2023/08/17 02:51:50;;;;;;;8.20;1.90;;;;;;;;;;5031815;28;20021;-73
2023/08/17 02:54:16;;;;;;;6.28;1.90;;;;;;;;;;5031927;28;20093;-72
2023/08/17 02:56:42;;;;;;;9.18;1.83;;;;;;;;;;5031823;28;20479;-72
2023/08/17 02:59:08;;;;;;;8.40;1.30;;;;;;;;;;5031575;28;20112;-72
2023/08/17 03:01:34;;;;;;;10.18;2.00;;;;;;;;;;5031986;28;20083;-72
2023/08/17 03:04:00;;;;;;;8.05;1.70;;;;;;;;;;5031624;28;20026;-73
2023/08/17 03:06:26;;;;;;;11.75;1.83;;;;;;;;;;5031765;28;20018;-73
2023/08/17 03:08:53;;;;;;;6.95;1.67;;;;;;;;;;5031564;28;20508;-72
2023/08/17 03:11:20;;;;;;;8.00;1.83;;;;;;;;;;5031603;28;20164;-72
2023/08/17 03:13:48;;;;;;;7.45;1.70;;;;;;;;;;5031195;28;20033;-71
2023/08/17 03:16:14;;;;;;;16.13;1.70;;;;;;;;;;5031466;28;20488;-73
2023/08/17 03:18:40;;;;;;;6.20;1.73;;;;;;;;;;5031515;28;20033;-73
2023/08/17 03:21:06;;;;;;;5.57;1.73;;;;;;;;;;5031402;28;20025;-75
2023/08/17 03:23:33;;;;;;;6.85;1.73;;;;;;;;;;5031541;28;20024;-73
2023/08/17 03:25:59;;;;;;;6.25;1.67;;;;;;;;;;5031548;28;20389;-73
2023/08/17 03:28:25;;;;;;;8.32;1.40;;;;;;;;;;5030254;28;20436;-73
2023/08/17 03:30:55;;;;;;;9.80;2.20;;;;;;;;;;5047970;28;20060;-73
2023/08/17 03:33:21;;;;;;;6.90;1.60;;;;;;;;;;5050624;28;20035;-73
2023/08/17 03:35:47;;;;;;;10.88;2.05;;;;;;;;;;5050830;28;20141;-73
2023/08/17 03:38:13;;;;;;;7.40;2.03;;;;;;;;;;5050752;28;20033;-73
2023/08/17 03:40:39;;;;;;;7.13;1.77;;;;;;;;;;5050841;28;20040;-73
2023/08/17 03:43:05;;;;;;;10.95;1.95;;;;;;;;;;5050320;28;20033;-73
2023/08/17 03:45:31;;;;;;;6.60;2.00;;;;;;;;;;5050875;28;20558;-73
2023/08/17 03:47:57;;;;;;;8.90;2.20;;;;;;;;;;5050806;28;20079;-74
2023/08/17 03:50:23;;;;;;;9.68;1.73;;;;;;;;;;5050765;28;20075;-73
2023/08/17 03:52:49;;;;;;;8.65;2.25;;;;;;;;;;5050283;28;20432;-74
2023/08/17 03:55:15;;;;;;;5.15;1.80;;;;;;;;;;5053750;28;20029;-74
2023/08/17 03:57:41;;;;;;;7.47;1.98;;;;;;;;;;5054914;28;20489;-73
2023/08/17 04:00:07;;;;;;;7.65;2.00;;;;;;;;;;5054016;28;20033;-73
2023/08/17 04:02:33;;;;;;;12.98;2.55;;;;;;;;;;5053796;28;20482;-74
2023/08/17 04:04:59;;;;;;;6.20;2.10;;;;;;;;;;5054126;28;20104;-75
2023/08/17 04:07:25;;;;;;;8.50;1.90;;;;;;;;;;5054185;28;20021;-73
2023/08/17 04:09:51;;;;;;;12.10;2.55;;;;;;;;;;5054491;28;20025;-73
2023/08/17 04:12:18;;;;;;;10.50;2.78;;;;;;;;;;5054210;28;20021;-72
2023/08/17 04:14:44;;;;;;;7.10;1.88;;;;;;;;;;5054484;28;20033;-72
2023/08/17 04:17:11;;;;;;;5.47;1.80;;;;;;;;;;5055271;28;20028;-73
2023/08/17 04:19:37;;;;;;;7.90;2.40;;;;;;;;;;5056757;28;20029;-74
2023/08/17 04:22:03;;;;;;;7.28;2.15;;;;;;;;;;5056337;28;20116;-75
2023/08/17 04:24:29;;;;;;;12.93;4.88;;;;;;;;;;5057308;28;20029;-74
2023/08/17 04:26:55;;;;;;;12.02;4.32;;;;;;;;;;5058024;28;20028;-75
2023/08/17 04:29:21;;;;;;;11.15;3.95;;;;;;;;;;5058924;28;20063;-72
2023/08/17 04:31:47;;;;;;;9.02;2.40;;;;;;;;;;5056112;28;20029;-74
2023/08/17 04:34:13;;;;;;;8.65;2.00;;;;;;;;;;5053889;28;20036;-74
2023/08/17 04:36:39;;;;;;;6.93;2.10;;;;;;;;;;5054053;28;20483;-73
2023/08/17 04:39:05;;;;;;;12.82;2.45;;;;;;;;;;5054102;28;20102;-73
2023/08/17 04:41:31;;;;;;;10.57;3.10;;;;;;;;;;5053928;28;20049;-73
2023/08/17 04:43:57;;;;;;;17.17;3.60;;;;;;;;;;5054913;28;20025;-75
2023/08/17 04:46:23;;;;;;;10.05;2.58;;;;;;;;;;5054277;28;20027;-74
2023/08/17 04:48:49;;;;;;;12.13;2.80;;;;;;;;;;5053648;28;20497;-74
2023/08/17 04:51:15;;;;;;;19.92;2.63;;;;;;;;;;5054172;28;20363;-74
2023/08/17 04:53:41;;;;;;;10.10;2.53;;;;;;;;;;5053849;28;20051;-75
2023/08/17 04:56:07;;;;;;;7.82;1.85;;;;;;;;;;5054051;28;20044;-74
2023/08/17 04:58:33;;;;;;;13.00;3.03;;;;;;;;;;5054083;28;20025;-74
2023/08/17 05:00:59;;;;;;;8.93;2.00;;;;;;;;;;5054106;28;20052;-74
2023/08/17 05:03:25;;;;;;;10.48;2.25;;;;;;;;;;5053295;28;20105;-74
2023/08/17 05:05:55;;;;;;;13.75;2.35;;;;;;;;;;5052626;28;20028;-75
2023/08/17 05:08:22;;;;;;;10.98;2.85;;;;;;;;;;5053325;28;20025;-74
2023/08/17 05:10:48;;;;;;;16.10;3.40;;;;;;;;;;5053022;28;20380;-72
2023/08/17 05:13:14;;;;;;;17.02;3.58;;;;;;;;;;5052795;28;20475;-73
2023/08/17 05:15:40;;;;;;;14.90;3.13;;;;;;;;;;5053048;28;20028;-72
2023/08/17 05:18:06;;;;;;;7.63;2.88;;;;;;;;;;5054099;28;20515;-74
2023/08/17 05:20:31;;;;;;;10.05;2.70;;;;;;;;;;5053596;28;20027;-74
2023/08/17 05:22:57;;;;;;;13.02;3.03;;;;;;;;;;5053250;28;20021;-73
2023/08/17 05:25:26;;;;;;;12.32;3.25;;;;;;;;;;5053258;28;20513;-73
2023/08/17 05:27:51;;;;;;;15.45;3.17;;;;;;;;;;5053134;28;20029;-74
2023/08/17 05:30:18;;;;;;;12.50;3.33;;;;;;;;;;5053067;28;20087;-73
2023/08/17 05:32:44;;;;;;;12.80;3.60;;;;;;;;;;5044438;28;20447;-75
2023/08/17 05:35:09;;;;;;;14.00;3.42;;;;;;;;;;5034085;28;20029;-75
2023/08/17 05:37:35;;;;;;;14.45;3.20;;;;;;;;;;5032747;28;20018;-75
2023/08/17 05:40:01;;;;;;;11.85;3.38;;;;;;;;;;5033078;28;20048;-76
2023/08/17 05:42:27;;;;;;;15.55;3.30;;;;;;;;;;5033329;28;20029;-75
2023/08/17 05:44:53;;;;;;;13.73;4.60;;;;;;;;;;5032829;28;20030;-76
2023/08/17 05:47:19;;;;;;;9.65;3.17;;;;;;;;;;5033448;28;20494;-78
2023/08/17 05:49:45;;;;;;;16.38;3.95;;;;;;;;;;5031496;28;20026;-75
2023/08/17 05:52:12;;;;;;;10.95;3.00;;;;;;;;;;5032051;28;20021;-73
2023/08/17 05:54:38;;;;;;;11.15;3.45;;;;;;;;;;5032190;28;20051;-73
2023/08/17 05:57:04;;;;;;;10.00;3.28;;;;;;;;;;5032318;28;20055;-74
2023/08/17 05:59:30;;;;;;;12.35;3.50;;;;;;;;;;5030883;28;20021;-76
2023/08/17 06:01:56;;;;;;;9.95;3.05;;;;;;;;;;5027467;28;20364;-74
2023/08/17 06:04:22;;;;;;;11.88;3.40;;;;;;;;;;5032019;28;20036;-74
2023/08/17 06:06:48;;;;;;;13.00;3.10;;;;;;;;;;5032272;28;20029;-74
2023/08/17 06:09:14;;;;;;;13.85;3.20;;;;;;;;;;5030521;28;20021;-74
2023/08/17 06:11:40;;;;;;;13.07;4.13;;;;;;;;;;5032490;28;20029;-73
2023/08/17 06:14:07;;;;;;;11.20;4.57;;;;;;;;;;5031036;28;20434;-73
2023/08/17 06:16:33;;;;;;;10.50;3.30;;;;;;;;;;5032142;28;20034;-73
2023/08/17 06:18:59;;;;;;;13.02;3.35;;;;;;;;;;5033445;28;20359;-79
2023/08/17 06:21:25;;;;;;;10.82;3.38;;;;;;;;;;5033267;28;20459;-75
2023/08/17 06:23:51;;;;;;;11.77;3.92;;;;;;;;;;5031856;28;20113;-75
2023/08/17 06:26:17;;;;;;;13.75;3.80;;;;;;;;;;5032076;28;20017;-77
2023/08/17 06:28:43;;;;;;;10.52;3.70;;;;;;;;;;5032562;28;20087;-77
2023/08/17 06:31:09;;;;;;;10.50;3.92;;;;;;;;;;5028809;28;20472;-78
2023/08/17 06:33:35;;;;;;;11.60;3.80;;;;;;;;;;5022291;28;20030;-77
2023/08/17 06:36:01;;;;;;;19.98;4.57;;;;;;;;;;5012872;28;20048;-78
2023/08/17 06:38:27;;;;;;;17.15;4.18;;;;;;;;;;5013334;28;20025;-73
2023/08/17 06:40:53;;;;;;;11.65;3.40;;;;;;;;;;5013188;28;20057;-74
2023/08/17 06:43:19;;;;;;;15.90;4.18;;;;;;;;;;5012283;28;20034;-73
2023/08/17 06:45:45;;;;;;;12.77;4.00;;;;;;;;;;5012672;28;20068;-74
2023/08/17 06:48:11;;;;;;;13.93;4.55;;;;;;;;;;5015571;28;20021;-75
2023/08/17 06:50:37;;;;;;;20.00;5.90;;;;;;;;;;5016995;28;20033;-75
2023/08/17 06:53:04;;;;;;;15.10;5.55;;;;;;;;;;5012299;28;20092;-74
2023/08/17 06:55:30;;;;;;;43.65;17.15;;;;;;;;;;5012979;28;20018;-80
2023/08/17 06:57:57;;;;;;;22.73;9.00;;;;;;;;;;5011975;28;20108;-74
2023/08/17 07:00:23;;;;;;;13.88;4.78;;;;;;;;;;5012472;28;20034;-76
2023/08/17 07:02:49;;;;;;;11.52;3.75;;;;;;;;;;5011764;28;20030;-76
2023/08/17 07:05:16;;;;;;;14.40;3.90;;;;;;;;;;5011787;28;20018;-73
2023/08/17 07:07:45;;;;;;;10.90;4.32;;;;;;;;;;5011950;28;20022;-73
2023/08/17 07:10:11;;;;;;;15.38;6.30;;;;;;;;;;5011953;28;20072;-72
2023/08/17 07:12:37;;;;;;;10.20;4.15;;;;;;;;;;5011582;28;20447;-72
2023/08/17 07:15:04;;;;;;;16.75;4.90;;;;;;;;;;5011672;28;20128;-72
2023/08/17 07:17:30;;;;;;;13.77;4.80;;;;;;;;;;5011675;28;20025;-78
2023/08/17 07:19:56;;;;;;;10.32;4.07;;;;;;;;;;5014017;28;20036;-76
2023/08/17 07:22:22;;;;;;;9.90;3.83;;;;;;;;;;5014549;28;20114;-77
2023/08/17 07:24:48;;;;;;;16.67;7.50;;;;;;;;;;5015991;28;20030;-75
2023/08/17 07:27:14;;;;;;;17.70;6.85;;;;;;;;;;5012494;28;20028;-75
2023/08/17 07:29:40;;;;;;;35.85;15.00;;;;;;;;;;5015850;28;20464;-75
2023/08/17 07:32:07;;;;;;;10.82;4.30;;;;;;;;;;5015639;28;20117;-76
2023/08/17 07:34:33;;;;;;;12.55;5.13;;;;;;;;;;5015621;28;20120;-74
2023/08/17 07:36:59;;;;;;;14.82;4.88;;;;;;;;;;5015456;28;20029;-75
2023/08/17 07:39:25;;;;;;;39.42;13.35;;;;;;;;;;5015729;28;20045;-75
2023/08/17 07:41:51;;;;;;;11.40;4.53;;;;;;;;;;5014971;28;20039;-74
2023/08/17 07:44:17;;;;;;;14.45;4.90;;;;;;;;;;5016201;28;20022;-74
2023/08/17 07:46:43;;;;;;;14.70;4.97;;;;;;;;;;5033972;28;20033;-73
2023/08/17 07:49:09;;;;;;;22.20;8.23;;;;;;;;;;5034375;28;20033;-73
2023/08/17 07:51:35;;;;;;;11.63;4.88;;;;;;;;;;5034858;28;20049;-74
2023/08/17 07:54:01;;;;;;;16.05;4.97;;;;;;;;;;5034146;28;20043;-75
2023/08/17 07:56:27;;;;;;;13.93;4.50;;;;;;;;;;5034883;28;20447;-74
2023/08/17 07:58:54;;;;;;;16.58;5.22;;;;;;;;;;5034564;28;20104;-74
2023/08/17 08:01:20;;;;;;;17.67;4.65;;;;;;;;;;5036103;28;20109;-75
2023/08/17 08:03:46;;;;;;;13.48;4.05;;;;;;;;;;5037177;28;20022;-73
2023/08/17 08:06:12;;;;;;;9.32;4.35;;;;;;;;;;5037393;28;20116;-74
2023/08/17 08:08:39;;;;;;;9.43;3.90;;;;;;;;;;5036031;28;20060;-75
2023/08/17 08:11:05;;;;;;;13.85;5.07;;;;;;;;;;5035319;28;20096;-75
2023/08/17 08:13:31;;;;;;;14.75;4.47;;;;;;;;;;5034583;28;20026;-74
2023/08/17 08:15:59;;;;;;;13.25;3.90;;;;;;;;;;5034325;28;20029;-73
2023/08/17 08:18:25;;;;;;;9.50;4.15;;;;;;;;;;5034326;28;20556;-73
2023/08/17 08:20:51;;;;;;;8.85;3.55;;;;;;;;;;5034393;28;20066;-72
2023/08/17 08:23:17;;;;;;;9.98;4.57;;;;;;;;;;5034120;28;20025;-73
2023/08/17 08:25:44;;;;;;;8.32;4.55;;;;;;;;;;5036053;28;20475;-74
2023/08/17 08:28:10;;;;;;;9.98;4.32;;;;;;;;;;5039599;28;20124;-74
2023/08/17 08:30:35;;;;;;;8.93;3.85;;;;;;;;;;5043827;28;20128;-77
2023/08/17 08:33:02;;;;;;;10.23;4.30;;;;;;;;;;5036686;28;20033;-78
2023/08/17 08:35:29;;;;;;;10.57;4.45;;;;;;;;;;5035339;28;20056;-76
2023/08/17 08:37:58;;;;;;;10.40;3.97;;;;;;;;;;5034733;28;20535;-76
2023/08/17 08:40:27;;;;;;;16.50;4.00;;;;;;;;;;5033542;28;20026;-76
2023/08/17 08:42:54;;;;;;;6.93;3.70;;;;;;;;;;5033830;28;20083;-76
2023/08/17 08:45:21;;;;;;;11.35;4.63;;;;;;;;;;5035841;28;20453;-75
2023/08/17 08:47:47;;;;;;;10.25;3.72;;;;;;;;;;5035581;28;20025;-75
2023/08/17 08:50:17;;;;;;;11.52;3.50;;;;;;;;;;5033850;28;20026;-74
2023/08/17 08:52:45;;;;;;;11.43;3.75;;;;;;;;;;5033541;28;20503;-74
2023/08/17 08:55:22;;;;;;;10.88;4.32;;;;;;;;;;5039704;28;20030;-75
2023/08/17 08:57:49;;;;;;;10.63;4.25;;;;;;;;;;5043969;28;20029;-78
2023/08/17 09:00:17;;;;;;;9.23;3.03;;;;;;;;;;5046821;28;20025;-79
2023/08/17 09:02:43;;;;;;;8.25;3.38;;;;;;;;;;5043586;28;20039;-77
2023/08/17 09:05:10;;;;;;;6.53;3.20;;;;;;;;;;5034375;28;20026;-76
2023/08/17 09:07:37;;;;;;;9.98;3.60;;;;;;;;;;5033523;28;20040;-76
2023/08/17 09:10:04;;;;;;;11.10;3.17;;;;;;;;;;5033535;28;20033;-76
2023/08/17 09:12:30;;;;;;;11.02;3.90;;;;;;;;;;5033021;28;20025;-76
2023/08/17 09:14:56;;;;;;;9.35;3.20;;;;;;;;;;5033370;28;20291;-77
2023/08/17 09:17:26;;;;;;;12.07;3.30;;;;;;;;;;5033752;28;20099;-76
2023/08/17 09:19:52;;;;;;;10.68;3.63;;;;;;;;;;5032963;28;20087;-77
2023/08/17 09:22:25;;;;;;;7.60;3.08;;;;;;;;;;5033100;28;20029;-75
2023/08/17 09:24:51;;;;;;;9.82;3.17;;;;;;;;;;5032945;28;20028;-76
2023/08/17 09:27:17;;;;;;;9.90;2.80;;;;;;;;;;5033583;28;20026;-76
2023/08/17 09:29:45;;;;;;;10.65;3.00;;;;;;;;;;5035176;28;20029;-78
2023/08/17 09:32:11;;;;;;;8.95;3.00;;;;;;;;;;5033570;28;20557;-77
2023/08/17 09:34:37;;;;;;;12.07;3.20;;;;;;;;;;5033204;28;20033;-76
2023/08/17 09:37:06;;;;;;;6.18;2.55;;;;;;;;;;5036407;28;20041;-78
2023/08/17 09:39:32;;;;;;;12.57;3.22;;;;;;;;;;5039720;28;20026;-76
2023/08/17 09:41:59;;;;;;;7.90;3.00;;;;;;;;;;5032857;28;20107;-76
2023/08/17 09:44:25;;;;;;;9.40;3.28;;;;;;;;;;5031284;28;20113;-75
2023/08/17 09:46:51;;;;;;;9.85;3.13;;;;;;;;;;5032705;28;20116;-76
2023/08/17 09:49:19;;;;;;;8.48;3.95;;;;;;;;;;5033014;28;20109;-76
2023/08/17 09:51:45;;;;;;;13.88;4.40;;;;;;;;;;5033404;28;20017;-76
2023/08/17 09:54:22;;;;;;;10.48;4.60;;;;;;;;;;5037943;28;20033;-76
2023/08/17 09:56:49;;;;;;;12.82;4.22;;;;;;;;;;5038031;28;20026;-76
2023/08/17 09:59:15;;;;;;;11.85;3.30;;;;;;;;;;5037082;28;20025;-74
2023/08/17 10:01:42;;;;;;;16.65;4.68;;;;;;;;;;5034878;28;20411;-75
2023/08/17 10:04:09;;;;;;;14.93;4.47;;;;;;;;;;5036059;28;20021;-74
2023/08/17 10:06:36;;;;;;;13.13;4.20;;;;;;;;;;5035722;28;20048;-75
2023/08/17 10:09:02;;;;;;;15.25;4.63;;;;;;;;;;5035693;28;20017;-74
2023/08/17 10:11:32;;;;;;;8.00;2.85;;;;;;;;;;5035031;28;20022;-76
2023/08/17 10:14:02;;;;;;;5.40;2.15;;;;;;;;;;5032890;28;20036;-77
2023/08/17 10:16:50;;;;;;;4.82;1.67;;;;;;;;;;5033769;28;20017;-74
2023/08/17 10:19:25;;;;;;;2.60;1.50;;;;;;;;;;5033624;28;20025;-76
2023/08/17 10:21:54;;;;;;;2.83;1.50;;;;;;;;;;5033312;28;20036;-76
2023/08/17 10:24:20;;;;;;;4.38;1.63;;;;;;;;;;5032877;28;20171;-75
2023/08/17 10:26:47;;;;;;;4.05;1.48;;;;;;;;;;5031638;28;20096;-75
2023/08/17 10:29:13;;;;;;;6.00;1.50;;;;;;;;;;5036513;28;20026;-76
2023/08/17 10:31:39;;;;;;;2.47;1.60;;;;;;;;;;5037871;28;20029;-75
2023/08/17 10:34:05;;;;;;;5.05;1.60;;;;;;;;;;5038245;28;20026;-75
2023/08/17 10:36:32;;;;;;;4.90;2.25;;;;;;;;;;5040603;28;20035;-75
2023/08/17 10:39:17;;;;;;;6.13;1.50;;;;;;;;;;5038269;28;20028;-75
2023/08/17 10:41:49;;;;;;;10.00;1.45;;;;;;;;;;5037404;28;20040;-74
2023/08/17 10:44:15;;;;;;;6.10;2.30;;;;;;;;;;5037344;28;20021;-76
2023/08/17 10:46:43;;;;;;;4.75;1.80;;;;;;;;;;5040476;28;20041;-76
2023/08/17 10:49:24;;;;;;;3.35;1.80;;;;;;;;;;5038967;28;20075;-77
2023/08/17 10:52:00;;;;;;;3.17;2.10;;;;;;;;;;5038593;28;20121;-76
2023/08/17 10:54:36;;;;;;;4.10;2.00;;;;;;;;;;5038301;28;20026;-76
2023/08/17 10:57:22;;;;;;;4.43;2.03;;;;;;;;;;5038548;28;20388;-76
2023/08/17 11:00:07;;;;;;;6.82;1.90;;;;;;;;;;5032983;28;20029;-75
2023/08/17 11:02:33;;;;;;;;;;;;;;;;;;5033948;28;20025;-77
2023/08/17 11:04:59;;;;;;;10.30;2.92;;;;;;;;;;5035437;28;19920;-75
2023/08/17 11:07:28;;;;;;;9.98;2.58;;;;;;;;;;5036549;28;20032;-76
2023/08/17 11:09:54;;;;;;;9.40;3.05;;;;;;;;;;5036313;28;20065;-76
2023/08/17 11:12:26;;;;;;;8.13;2.33;;;;;;;;;;5035677;28;20036;-75
2023/08/17 11:14:52;;;;;;;12.23;2.78;;;;;;;;;;5035556;28;20057;-75
2023/08/17 11:17:21;;;;;;;7.25;2.35;;;;;;;;;;5035511;28;20502;-74
2023/08/17 11:19:50;;;;;;;6.65;2.83;;;;;;;;;;5035601;28;20521;-74
2023/08/17 11:22:18;;;;;;;7.55;2.88;;;;;;;;;;5044984;28;20497;-75
2023/08/17 11:24:44;;;;;;;6.53;2.80;;;;;;;;;;5046300;28;20537;-76
2023/08/17 11:27:10;;;;;;;6.18;2.67;;;;;;;;;;5038313;28;20029;-76
2023/08/17 11:29:36;;;;;;;7.82;2.80;;;;;;;;;;5043577;28;20021;-76
2023/08/17 11:32:04;;;;;;;10.93;4.28;;;;;;;;;;5037864;28;20462;-76
2023/08/17 11:34:30;;;;;;;16.25;4.82;;;;;;;;;;5035610;28;20025;-76
2023/08/17 11:36:57;;;;;;;5.93;2.70;;;;;;;;;;5036013;28;20029;-76
2023/08/17 11:39:23;;;;;;;7.18;2.83;;;;;;;;;;5036120;28;20040;-76
2023/08/17 11:41:52;;;;;;;8.35;3.20;;;;;;;;;;5036132;28;20101;-75
2023/08/17 11:44:21;;;;;;;7.05;2.70;;;;;;;;;;5035304;28;20021;-76
2023/08/17 11:46:47;;;;;;;7.40;2.88;;;;;;;;;;5035428;28;20044;-76
2023/08/17 11:49:13;;;;;;;8.23;3.20;;;;;;;;;;5035688;28;20044;-75
2023/08/17 11:51:40;;;;;;;9.13;3.28;;;;;;;;;;5034357;28;20456;-74
2023/08/17 11:54:07;;;;;;;8.75;2.85;;;;;;;;;;5034430;28;20108;-75
2023/08/17 11:56:33;;;;;;;10.95;2.75;;;;;;;;;;5037114;28;20026;-76
2023/08/17 11:59:08;;;;;;;8.75;2.90;;;;;;;;;;5035850;28;20033;-75
2023/08/17 12:01:35;;;;;;;7.53;2.83;;;;;;;;;;5035604;28;20029;-75
2023/08/17 12:04:01;;;;;;;9.15;3.92;;;;;;;;;;5036684;28;20096;-75
2023/08/17 12:06:27;;;;;;;10.10;4.03;;;;;;;;;;5035831;28;20060;-73
2023/08/17 12:08:53;;;;;;;6.85;2.97;;;;;;;;;;5034820;28;20026;-72
2023/08/17 12:11:19;;;;;;;9.90;2.75;;;;;;;;;;5035535;28;20028;-74
2023/08/17 12:13:50;;;;;;;4.95;2.20;;;;;;;;;;5037661;28;20148;-75
2023/08/17 12:16:17;;;;;;;7.82;2.40;;;;;;;;;;5038490;28;20022;-74
2023/08/17 12:18:48;;;;;;;4.20;2.30;;;;;;;;;;5038328;28;20044;-74
2023/08/17 12:21:14;;;;;;;7.18;2.60;;;;;;;;;;5035062;28;20026;-75
2023/08/17 12:23:40;;;;;;;6.22;2.38;;;;;;;;;;5034007;28;20029;-74
2023/08/17 12:26:06;;;;;;;9.18;3.17;;;;;;;;;;5034192;28;20472;-74
2023/08/17 12:28:32;;;;;;;10.27;2.78;;;;;;;;;;5034149;28;20018;-74
2023/08/17 12:31:00;;;;;;;8.57;2.60;;;;;;;;;;5034054;28;20057;-74
2023/08/17 12:33:26;;;;;;;5.57;2.20;;;;;;;;;;5034010;28;20036;-75
2023/08/17 12:35:52;;;;;;;5.78;2.58;;;;;;;;;;5034099;28;20021;-74
2023/08/17 12:38:18;;;;;;;7.68;3.15;;;;;;;;;;5034043;28;20052;-75
2023/08/17 12:40:44;;;;;;;9.13;2.50;;;;;;;;;;5033862;28;20483;-75
2023/08/17 12:43:10;;;;;;;6.75;2.38;;;;;;;;;;5034261;28;20113;-75
2023/08/17 12:45:36;;;;;;;14.15;2.40;;;;;;;;;;5034699;28;20026;-76
2023/08/17 12:48:02;;;;;;;4.65;2.42;;;;;;;;;;5034996;28;20109;-75
2023/08/17 12:50:28;;;;;;;5.75;2.55;;;;;;;;;;5034898;28;20428;-75
2023/08/17 12:52:54;;;;;;;6.82;2.58;;;;;;;;;;5034067;28;20099;-75
2023/08/17 12:55:20;;;;;;;5.07;3.13;;;;;;;;;;5034132;28;20025;-76
2023/08/17 12:57:46;;;;;;;9.38;2.63;;;;;;;;;;5035059;28;20030;-74
2023/08/17 13:00:12;;;;;;;8.60;2.22;;;;;;;;;;5034382;28;20029;-74
2023/08/17 13:02:38;;;;;;;9.27;2.30;;;;;;;;;;5032296;28;20038;-73
2023/08/17 13:05:04;;;;;;;7.20;2.58;;;;;;;;;;5035135;28;20030;-74
2023/08/17 13:07:30;;;;;;;7.57;2.75;;;;;;;;;;5036753;28;20033;-74
2023/08/17 13:09:56;;;;;;;9.38;2.42;;;;;;;;;;5035858;28;20025;-73
2023/08/17 13:12:22;;;;;;;7.88;2.63;;;;;;;;;;5033535;28;20471;-74
2023/08/17 13:14:48;;;;;;;7.20;2.72;;;;;;;;;;5034039;28;20126;-73
2023/08/17 13:17:16;;;;;;;6.60;2.30;;;;;;;;;;5034758;28;20030;-73
2023/08/17 13:19:42;;;;;;;6.95;2.63;;;;;;;;;;5033289;28;20484;-74
2023/08/17 13:22:10;;;;;;;7.53;2.70;;;;;;;;;;5032492;28;20043;-75
2023/08/17 13:24:36;;;;;;;9.05;4.70;;;;;;;;;;5035512;28;20048;-74
2023/08/17 13:27:02;;;;;;;12.85;3.97;;;;;;;;;;5035774;28;20384;-74
2023/08/17 13:29:28;;;;;;;8.02;3.92;;;;;;;;;;5036649;28;20104;-74
2023/08/17 13:31:54;;;;;;;7.68;2.85;;;;;;;;;;5037661;28;20060;-76
2023/08/17 13:34:20;;;;;;;8.48;3.17;;;;;;;;;;5046570;28;20487;-74
2023/08/17 13:36:46;;;;;;;6.53;2.28;;;;;;;;;;5033256;28;20064;-74
2023/08/17 13:39:12;;;;;;;8.18;2.47;;;;;;;;;;5031422;28;20049;-74
2023/08/17 13:41:38;;;;;;;9.73;2.22;;;;;;;;;;5032000;28;20094;-73
2023/08/17 13:44:04;;;;;;;3.75;1.70;;;;;;;;;;5031994;28;20022;-73
2023/08/17 13:46:30;;;;;;;4.53;1.42;;;;;;;;;;5031514;28;20246;-79
2023/08/17 13:48:56;;;;;;;2.47;1.58;;;;;;;;;;5032480;28;20371;-72
2023/08/17 13:51:22;;;;;;;5.95;1.83;;;;;;;;;;5039134;28;20494;-74
2023/08/17 13:53:48;;;;;;;4.78;1.80;;;;;;;;;;5031690;28;20065;-74
2023/08/17 13:56:14;;;;;;;4.93;2.03;;;;;;;;;;5031400;28;20387;-74
2023/08/17 13:58:40;;;;;;;4.68;1.27;;;;;;;;;;5032307;28;20073;-74
2023/08/17 14:01:06;;;;;;;3.60;1.30;;;;;;;;;;5029978;28;20029;-73
2023/08/17 14:03:32;;;;;;;2.72;1.08;;;;;;;;;;5031200;28;20484;-74
2023/08/17 14:05:58;;;;;;;1.58;0.90;;;;;;;;;;5031803;28;20050;-73
2023/08/17 14:08:24;;;;;;;5.30;1.42;;;;;;;;;;5029507;28;20037;-73
2023/08/17 14:10:50;;;;;;;3.53;1.60;;;;;;;;;;5031710;28;20030;-74
2023/08/17 14:13:16;;;;;;;3.67;1.67;;;;;;;;;;5030129;28;20116;-75
2023/08/17 14:15:42;;;;;;;3.28;1.80;;;;;;;;;;5031222;28;20116;-75
2023/08/17 14:18:08;;;;;;;4.75;1.80;;;;;;;;;;5046669;28;20040;-75
2023/08/17 14:20:34;;;;;;;2.58;1.60;;;;;;;;;;5050957;28;20052;-74
2023/08/17 14:23:00;;;;;;;3.08;1.20;;;;;;;;;;5050290;28;20079;-75
2023/08/17 14:25:27;;;;;;;3.38;1.40;;;;;;;;;;5051577;28;20467;-75
2023/08/17 14:27:53;;;;;;;3.42;1.27;;;;;;;;;;5051319;28;20032;-74
2023/08/17 14:30:19;;;;;;;3.42;1.20;;;;;;;;;;5051916;28;20021;-74
2023/08/17 14:32:45;;;;;;;6.68;1.30;;;;;;;;;;5050257;28;20083;-74
2023/08/17 14:35:11;;;;;;;8.93;1.13;;;;;;;;;;5050616;28;20029;-72